KHST/HST METAR and TAF weather

Enter ICAO airport designator
Station Type Date Time Source
KHST METAR 2019/02/18 03:56 UTC NOAA

KHST 180356Z AUTO 13008KT 10SM BKN049 OVC060 25/23 A3004 RMK AO2 SLP176 T02470227 FZRANO $


Station Type Date Time Source
KHST Decoded METAR 2019/02/18 03:56 UTC NOAA

Homestead Air Force Base, FL, United States (KHST) 25-29N 080-23W
Feb 17, 2019 - 10:56 PM EST / 2019.02.18 0356 UTC
Wind: from the SE (130 degrees) at 9 MPH (8 KT):0
Visibility: 10 mile(s):0
Sky conditions: overcast
Temperature: 76.5 F (24.7 C)
Dew Point: 72.9 F (22.7 C)
Relative Humidity: 88%
Pressure (altimeter): 30.04 in. Hg (1017 hPa)
ob: KHST 180356Z AUTO 13008KT 10SM BKN049 OVC060 25/23 A3004 RMK AO2 SLP176 T02470227 FZRANO
cycle: 4

Station Type Date Time Source
KHST TAF 2019/02/18 01:59 UTC NOAA

TAF
AMD KHST 180100Z 1801/1906 15009KT 9999 SCT025 QNH2997INS
BECMG 1805/1806 15006KT 6000 BR BKN020 QNH3002INS
BECMG 1814/1815 15012KT 9999 NSW BKN025 QNH3007INS
BECMG 1820/1821 13009KT 9999 SCT030 QNH3010INS TX28/1819Z TN21/1808Z


Example: see airport list